Time;durP1;ratioP1;P1;durP2;ratioP2;P2;SDS_P1;SDS_P2;PMS_P1;PMS_P2;Temp;Humidity;BMP_temperature;BMP_pressure;BME280_temperature;BME280_humidity;BME280_pressure;Samples;Min_cycle;Max_cycle;Signal;HPM_P1;HPM_P2
2023/03/08 07:29:50;;;;;;;2.13;0.75;;;12.20;99.90;;;;;;4950157;29;20066;-83
2023/03/08 07:32:16;;;;;;;2.55;0.80;;;12.10;99.90;;;;;;4948625;29;20042;-82
2023/03/08 07:34:42;;;;;;;2.70;0.70;;;12.10;99.90;;;;;;4940595;29;20031;-82
2023/03/08 07:37:15;;;;;;;3.13;0.90;;;12.10;99.90;;;;;;4933770;29;20040;-83
2023/03/08 07:39:43;;;;;;;5.55;1.20;;;12.10;99.90;;;;;;4942007;29;20047;-84
2023/03/08 07:42:10;;;;;;;9.05;1.25;;;12.10;99.90;;;;;;4965253;28;20045;-80
2023/03/08 07:48:26;;;;;;;;;;;;;;;;;;;;;
2023/03/08 07:51:23;;;;;;;1.65;0.80;;;12.20;99.90;;;;;;4961651;28;20030;-82
2023/03/08 07:54:30;;;;;;;;;;;;;;;;;;;;;
2023/03/08 07:57:48;;;;;;;4.03;0.90;;;12.10;99.90;;;;;;4934704;29;20550;-82
2023/03/08 08:04:11;;;;;;;;;;;;;;;;;;;;;
2023/03/08 08:07:20;;;;;;;6.32;1.40;;;12.10;99.90;;;;;;4954618;28;20055;-83
2023/03/08 08:13:27;;;;;;;4.28;1.00;;;12.10;99.90;;;;;;4916017;29;20082;-84
2023/03/08 08:19:42;;;;;;;3.65;0.82;;;12.20;99.90;;;;;;4898197;29;20036;-79
2023/03/08 08:26:54;;;;;;;;;;;;;;;;;;;;;
2023/03/08 09:14:17;;;;;;;5.60;1.40;;;12.90;99.90;;;;;;4970479;28;20399;-86
2023/03/08 09:50:56;;;;;;;3.97;1.23;;;13.10;99.90;;;;;;5453344;23;20059;-82
2023/03/08 09:53:38;;;;;;;3.67;1.05;;;13.10;99.90;;;;;;4959162;28;20093;-82
2023/03/08 09:56:42;;;;;;;6.78;1.80;;;13.10;99.90;;;;;;4976699;28;20811;-84
2023/03/08 09:59:18;;;;;;;2.75;0.98;;;13.20;99.90;;;;;;4967891;28;20035;-73
2023/03/08 10:01:55;;;;;;;5.85;1.23;;;13.20;99.90;;;;;;4992985;28;20061;-70
2023/03/08 10:04:52;;;;;;;5.85;1.17;;;13.20;99.90;;;;;;4959945;28;20059;-73
2023/03/08 10:07:43;;;;;;;4.85;1.25;;;13.10;99.90;;;;;;4975816;28;20716;-69
2023/03/08 10:10:33;;;;;;;4.85;1.60;;;13.10;99.90;;;;;;4947685;28;20035;-69
2023/03/08 10:13:09;;;;;;;3.70;0.95;;;13.00;99.90;;;;;;4977416;28;20037;-69
2023/03/08 10:15:41;;;;;;;5.35;1.40;;;12.90;99.90;;;;;;4977176;28;20031;-76
2023/03/08 10:18:26;;;;;;;3.30;1.13;;;12.90;99.90;;;;;;4977108;28;20030;-74
2023/03/08 10:20:52;;;;;;;5.00;1.20;;;12.90;99.90;;;;;;4977477;28;20023;-72
2023/03/08 10:23:20;;;;;;;3.30;1.38;;;13.00;99.90;;;;;;4977861;28;20437;-73
2023/03/08 10:25:48;;;;;;;5.05;1.30;;;13.10;99.90;;;;;;4976320;28;20026;-75
2023/03/08 10:28:17;;;;;;;3.97;1.35;;;13.20;99.90;;;;;;4977303;28;20361;-74
2023/03/08 10:30:50;;;;;;;4.72;1.02;;;13.30;99.90;;;;;;4977619;28;20111;-74
2023/03/08 10:33:18;;;;;;;4.60;1.17;;;13.40;99.90;;;;;;4977504;28;20483;-73
2023/03/08 10:36:08;;;;;;;1.95;0.80;;;13.40;99.90;;;;;;4976318;28;20027;-74
2023/03/08 10:38:35;;;;;;;2.85;0.88;;;13.40;99.90;;;;;;4965236;28;20027;-73
2023/03/08 10:41:14;;;;;;;3.50;0.85;;;13.50;99.90;;;;;;4959893;28;20037;-73
2023/03/08 10:43:46;;;;;;;2.58;0.80;;;13.40;99.90;;;;;;4977684;28;20513;-74
2023/03/08 10:46:14;;;;;;;3.42;0.73;;;13.30;99.90;;;;;;4975960;28;20023;-74
2023/03/08 10:48:40;;;;;;;2.28;0.90;;;13.30;99.90;;;;;;4960128;28;20049;-74
2023/03/08 10:51:21;;;;;;;2.22;1.15;;;13.20;99.90;;;;;;4977286;28;20137;-73
2023/03/08 10:53:55;;;;;;;2.10;0.80;;;13.20;99.90;;;;;;4977403;28;20027;-74
2023/03/08 10:56:43;;;;;;;3.08;0.80;;;13.30;99.90;;;;;;4975507;28;20884;-74
2023/03/08 10:59:28;;;;;;;2.38;0.75;;;13.30;99.90;;;;;;4959927;28;20034;-74
2023/03/08 11:01:58;;;;;;;2.17;0.77;;;13.40;99.90;;;;;;4977196;28;20031;-74
2023/03/08 11:04:26;;;;;;;5.13;0.93;;;13.50;99.90;;;;;;4976969;28;20060;-74
2023/03/08 11:06:53;;;;;;;3.28;1.00;;;13.70;99.90;;;;;;4977618;28;20547;-74
2023/03/08 11:09:21;;;;;;;2.72;0.93;;;;;;;;;;4963014;28;20380;-74
2023/03/08 11:11:47;;;;;;;2.05;0.80;;;13.90;99.90;;;;;;4963449;28;20035;-74
2023/03/08 11:14:13;;;;;;;3.13;0.93;;;13.90;99.90;;;;;;4981145;28;20110;-74
2023/03/08 11:16:57;;;;;;;2.45;0.73;;;14.00;99.90;;;;;;4981150;28;20030;-74
2023/03/08 11:19:42;;;;;;;2.95;0.90;;;13.90;99.90;;;;;;4980979;28;20019;-73
2023/03/08 11:22:46;;;;;;;6.13;1.40;;;13.90;99.90;;;;;;4980026;28;20395;-74
2023/03/08 11:25:15;;;;;;;4.63;1.13;;;13.90;99.90;;;;;;4980039;28;20035;-70
2023/03/08 11:28:07;;;;;;;4.93;1.35;;;14.00;99.90;;;;;;4953277;28;20367;-72
2023/03/08 11:30:57;;;;;;;3.78;1.10;;;14.00;99.90;;;;;;4978214;28;20081;-70
2023/03/08 11:34:21;;;;;;;6.18;1.80;;;13.90;99.90;;;;;;4980540;28;20035;-70
2023/03/08 11:37:19;;;;;;;6.50;1.48;;;13.90;99.90;;;;;;4942603;28;20131;-73
2023/03/08 11:39:53;;;;;;;5.07;1.73;;;13.90;99.90;;;;;;4960279;28;20035;-70
2023/03/08 11:42:34;;;;;;;6.53;1.60;;;13.80;99.90;;;;;;4980473;28;20019;-74
2023/03/08 11:45:32;;;;;;;7.30;2.35;;;13.80;99.90;;;;;;4963082;28;20395;-71
2023/03/08 11:48:03;;;;;;;7.72;1.75;;;13.70;99.90;;;;;;4951908;28;20031;-70
2023/03/08 11:50:29;;;;;;;6.00;1.60;;;13.70;99.90;;;;;;4980590;28;20106;-70
2023/03/08 11:53:04;;;;;;;6.53;1.55;;;13.50;99.90;;;;;;4962140;28;20487;-69
2023/03/08 11:55:42;;;;;;;7.72;1.77;;;13.40;99.90;;;;;;4978412;28;20022;-69
2023/03/08 11:58:21;;;;;;;9.63;2.15;;;13.30;99.90;;;;;;4974998;28;20018;-74
2023/03/08 12:00:50;;;;;;;7.75;1.90;;;13.20;99.90;;;;;;4977957;28;20022;-73
2023/03/08 12:03:23;;;;;;;7.30;1.77;;;13.00;99.90;;;;;;4956944;28;20026;-72
2023/03/08 12:06:21;;;;;;;8.95;1.75;;;12.90;99.90;;;;;;4962489;28;20034;-73
2023/03/08 12:09:15;;;;;;;5.80;1.35;;;12.80;99.90;;;;;;4950984;28;20183;-72
2023/03/08 12:11:48;;;;;;;4.97;1.35;;;12.70;99.90;;;;;;4979581;28;20093;-72
2023/03/08 12:14:19;;;;;;;7.10;1.70;;;12.70;99.90;;;;;;4980004;28;20038;-69
2023/03/08 12:17:01;;;;;;;3.80;1.30;;;12.70;99.90;;;;;;4979740;28;20059;-71
2023/03/08 12:19:36;;;;;;;3.60;1.05;;;12.80;99.90;;;;;;4979844;28;20030;-72
2023/03/08 12:22:17;;;;;;;5.82;1.33;;;12.80;99.90;;;;;;4978182;28;20035;-70
2023/03/08 12:25:07;;;;;;;3.08;1.10;;;12.90;99.90;;;;;;4978464;28;20507;-71
2023/03/08 12:27:44;;;;;;;4.15;1.20;;;12.90;99.90;;;;;;4979644;28;20022;-71
2023/03/08 12:30:40;;;;;;;4.50;1.17;;;13.00;99.90;;;;;;4979519;28;20023;-72
2023/03/08 12:33:10;;;;;;;3.53;1.05;;;13.10;99.90;;;;;;4979614;28;20034;-72
2023/03/08 12:35:37;;;;;;;4.32;1.08;;;;;;;;;;4962330;28;20499;-72
2023/03/08 12:38:30;;;;;;;3.00;1.02;;;13.30;99.90;;;;;;4979475;28;20057;-71
2023/03/08 12:40:56;;;;;;;4.30;1.38;;;13.30;99.90;;;;;;4959996;28;20038;-70
2023/03/08 12:43:21;;;;;;;6.07;1.58;;;13.30;99.90;;;;;;4978944;28;20031;-70
2023/03/08 12:45:59;;;;;;;3.65;1.40;;;13.30;99.90;;;;;;4960784;28;20038;-71
2023/03/08 12:48:34;;;;;;;5.63;1.67;;;13.30;99.90;;;;;;4979452;28;20034;-71
2023/03/08 12:51:12;;;;;;;3.33;1.08;;;13.20;99.90;;;;;;4979131;28;20083;-68
2023/03/08 12:53:49;;;;;;;4.25;1.40;;;13.20;99.90;;;;;;4979439;28;20022;-73
2023/03/08 12:56:42;;;;;;;5.40;1.48;;;13.20;99.90;;;;;;4971724;28;20031;-74
2023/03/08 12:59:13;;;;;;;7.30;1.60;;;13.30;99.90;;;;;;4972290;28;20030;-80
2023/03/08 13:01:42;;;;;;;8.20;1.58;;;13.40;99.90;;;;;;4960982;28;20092;-76
2023/03/08 13:04:37;;;;;;;7.07;1.60;;;13.40;99.90;;;;;;4961256;28;20034;-78
2023/03/08 13:07:21;;;;;;;6.07;1.83;;;13.50;99.90;;;;;;4978517;28;20030;-76
2023/03/08 13:09:55;;;;;;;8.30;1.65;;;13.50;99.90;;;;;;4960257;28;20420;-75
2023/03/08 13:12:22;;;;;;;6.35;1.67;;;13.50;99.90;;;;;;4977993;28;20031;-75
2023/03/08 13:15:17;;;;;;;7.43;1.75;;;13.60;99.90;;;;;;4978621;28;20027;-76
2023/03/08 13:17:51;;;;;;;5.25;1.33;;;13.70;99.90;;;;;;4961271;28;20122;-78
2023/03/08 13:20:41;;;;;;;5.97;1.40;;;13.70;99.90;;;;;;4959458;28;20022;-75
2023/03/08 13:23:10;;;;;;;6.32;1.65;;;13.70;99.90;;;;;;4978431;28;20027;-75
2023/03/08 13:25:56;;;;;;;5.90;1.48;;;13.80;99.90;;;;;;4978400;28;20033;-75
2023/03/08 13:28:25;;;;;;;7.80;1.77;;;14.00;99.90;;;;;;4959163;28;20118;-76
2023/03/08 13:30:54;;;;;;;6.78;1.73;;;14.10;99.90;;;;;;4977955;28;20059;-75
2023/03/08 13:33:29;;;;;;;5.75;1.70;;;14.10;99.90;;;;;;4978097;28;20019;-75
2023/03/08 13:36:02;;;;;;;8.18;1.90;;;14.10;99.90;;;;;;4960650;28;20023;-76
2023/03/08 13:38:30;;;;;;;;;;;14.10;99.90;;;;;;4977278;28;20451;-76
2023/03/08 13:40:57;;;;;;;7.70;1.98;;;14.10;99.90;;;;;;4977404;28;19910;-76
2023/03/08 13:43:27;;;;;;;6.35;1.92;;;14.30;99.90;;;;;;4978027;28;20026;-76
2023/03/08 13:45:56;;;;;;;7.18;1.75;;;14.30;99.90;;;;;;4978111;28;20547;-76
2023/03/08 13:48:25;;;;;;;6.57;1.55;;;14.30;99.90;;;;;;4973527;28;20058;-78
2023/03/08 13:50:51;;;;;;;8.27;1.90;;;;;;;;;;4977306;28;20105;-78
2023/03/08 13:53:21;;;;;;;5.40;1.42;;;14.50;99.90;;;;;;4978098;28;20105;-79
2023/03/08 13:55:50;;;;;;;4.07;1.05;;;14.60;99.90;;;;;;4992763;28;20045;-80
2023/03/08 13:58:26;;;;;;;6.88;1.70;;;14.60;99.90;;;;;;4976385;28;20057;-79
2023/03/08 14:01:13;;;;;;;5.93;1.80;;;14.60;99.90;;;;;;4977679;28;20027;-80
2023/03/08 14:03:40;;;;;;;5.15;1.42;;;14.60;99.90;;;;;;4977979;28;20509;-74
2023/03/08 14:06:28;;;;;;;6.28;1.48;;;14.60;99.90;;;;;;4977767;28;20044;-75
2023/03/08 14:08:58;;;;;;;6.72;1.45;;;14.60;99.90;;;;;;4976418;28;20019;-75
2023/03/08 14:11:36;;;;;;;6.50;1.60;;;14.60;99.90;;;;;;4977140;28;20027;-76
2023/03/08 14:14:06;;;;;;;4.50;1.40;;;14.50;99.90;;;;;;4977604;28;20022;-78
2023/03/08 14:16:38;;;;;;;6.35;1.80;;;14.50;99.90;;;;;;4992904;28;20066;-71
2023/03/08 14:19:20;;;;;;;4.97;1.35;;;14.50;99.90;;;;;;4959044;28;20027;-74
2023/03/08 14:21:55;;;;;;;7.63;1.90;;;14.50;99.90;;;;;;4972974;28;20050;-75
2023/03/08 14:24:33;;;;;;;5.60;1.42;;;14.50;99.90;;;;;;4959597;28;20050;-74
2023/03/08 14:27:01;;;;;;;6.72;1.83;;;14.60;99.90;;;;;;4960491;28;20031;-72
2023/03/08 14:29:30;;;;;;;7.95;2.10;;;14.80;99.90;;;;;;4978109;28;20106;-72
2023/03/08 14:32:11;;;;;;;6.38;1.50;;;14.80;99.90;;;;;;4977039;28;20403;-72
2023/03/08 14:34:42;;;;;;;6.25;1.75;;;14.80;99.90;;;;;;4959834;28;20148;-72
2023/03/08 14:37:21;;;;;;;8.13;1.60;;;14.80;99.90;;;;;;4978010;28;20031;-72
2023/03/08 14:39:49;;;;;;;8.63;1.67;;;14.80;99.90;;;;;;4960218;28;20031;-72
2023/03/08 14:42:24;;;;;;;7.78;1.85;;;14.90;99.90;;;;;;4963327;28;20112;-73
2023/03/08 14:44:56;;;;;;;8.77;1.83;;;14.90;99.90;;;;;;4981446;28;20050;-72
2023/03/08 14:47:32;;;;;;;6.95;1.60;;;14.90;99.90;;;;;;4979474;28;20023;-72
2023/03/08 14:50:04;;;;;;;7.60;1.95;;;14.90;99.90;;;;;;4969745;28;20462;-72
2023/03/08 14:52:32;;;;;;;8.88;1.75;;;15.00;99.90;;;;;;4964141;28;20512;-72
2023/03/08 14:54:59;;;;;;;8.93;2.22;;;15.00;99.90;;;;;;4981568;28;20019;-72
2023/03/08 14:57:26;;;;;;;7.70;1.77;;;;;;;;;;4981017;28;20038;-72
2023/03/08 14:59:55;;;;;;;7.68;1.80;;;15.10;99.90;;;;;;4981534;28;20023;-72
2023/03/08 15:02:20;;;;;;;10.73;2.35;;;15.10;99.90;;;;;;4964167;28;20464;-72
2023/03/08 15:04:46;;;;;;;6.18;1.50;;;15.10;99.90;;;;;;4981601;28;20034;-72
2023/03/08 15:07:22;;;;;;;15.90;2.42;;;15.10;99.90;;;;;;4963844;28;20514;-72
2023/03/08 15:09:50;;;;;;;8.38;2.10;;;15.00;99.90;;;;;;4981422;28;20109;-72
2023/03/08 15:12:17;;;;;;;10.82;2.50;;;15.10;99.90;;;;;;4981045;28;20033;-72
2023/03/08 15:14:43;;;;;;;11.45;2.75;;;15.10;99.90;;;;;;4981392;28;20100;-73
2023/03/08 15:17:08;;;;;;;13.05;2.65;;;15.10;99.90;;;;;;4981239;28;20037;-73
2023/03/08 15:19:34;;;;;;;9.05;1.92;;;15.00;99.90;;;;;;4981225;28;20110;-72
2023/03/08 15:22:00;;;;;;;8.75;2.25;;;15.00;99.90;;;;;;4981147;28;20394;-73
2023/03/08 15:24:26;;;;;;;15.20;2.90;;;15.00;99.90;;;;;;4980972;28;20022;-72
2023/03/08 15:26:54;;;;;;;16.73;2.88;;;15.00;99.90;;;;;;4980809;28;20037;-72
2023/03/08 15:29:28;;;;;;;8.90;2.38;;;15.00;99.90;;;;;;4963826;28;20030;-72
2023/03/08 15:31:54;;;;;;;14.13;2.75;;;15.00;99.90;;;;;;4963297;28;20027;-73
2023/03/08 15:34:20;;;;;;;12.80;2.85;;;15.10;99.90;;;;;;4963647;28;20110;-72
2023/03/08 15:36:47;;;;;;;8.63;2.88;;;15.10;99.90;;;;;;4980748;28;20038;-72
2023/03/08 15:39:13;;;;;;;14.35;2.65;;;15.10;99.90;;;;;;4963358;28;20029;-72
2023/03/08 15:41:39;;;;;;;14.50;2.83;;;15.10;99.90;;;;;;4980414;28;20463;-72
2023/03/08 15:44:05;;;;;;;10.43;2.38;;;15.10;99.90;;;;;;4980803;28;20027;-72
2023/03/08 15:46:30;;;;;;;14.93;3.00;;;15.10;99.90;;;;;;4980369;28;20467;-72
2023/03/08 15:48:56;;;;;;;7.95;2.50;;;15.20;99.90;;;;;;4959272;28;20475;-72
2023/03/08 15:51:27;;;;;;;11.27;2.70;;;15.10;99.90;;;;;;4979908;28;20054;-72
2023/03/08 15:53:53;;;;;;;8.80;2.28;;;15.10;99.90;;;;;;4980552;28;20019;-72
2023/03/08 15:56:18;;;;;;;8.73;2.22;;;15.10;99.90;;;;;;4979833;28;20035;-72
2023/03/08 15:58:44;;;;;;;11.35;2.45;;;15.00;99.90;;;;;;4980454;28;20038;-72
2023/03/08 16:01:10;;;;;;;10.68;2.50;;;15.00;99.90;;;;;;4980204;28;20471;-72
2023/03/08 16:03:37;;;;;;;9.07;2.80;;;15.00;99.90;;;;;;4980271;28;20026;-72
2023/03/08 16:06:08;;;;;;;13.60;2.50;;;15.00;99.90;;;;;;4962660;28;20113;-72
2023/03/08 16:08:35;;;;;;;10.05;2.53;;;14.90;99.90;;;;;;4980290;28;20054;-72
2023/03/08 16:11:04;;;;;;;10.80;2.47;;;14.90;99.90;;;;;;4962338;28;20031;-72
2023/03/08 16:13:30;;;;;;;11.48;2.58;;;14.90;99.90;;;;;;4980300;28;20062;-72
2023/03/08 16:16:00;;;;;;;12.38;2.97;;;14.80;99.90;;;;;;4980258;28;20090;-72
2023/03/08 16:18:28;;;;;;;10.63;2.22;;;14.80;99.90;;;;;;4980036;28;20047;-72
2023/03/08 16:20:54;;;;;;;11.27;2.33;;;14.70;99.90;;;;;;4980035;28;20034;-72
2023/03/08 16:23:19;;;;;;;9.00;2.30;;;14.70;99.90;;;;;;4980055;28;20383;-72
2023/03/08 16:25:45;;;;;;;9.82;2.47;;;14.60;99.90;;;;;;4962388;28;20155;-72
2023/03/08 16:28:11;;;;;;;10.00;2.65;;;14.60;99.90;;;;;;4994577;28;20031;-72
2023/03/08 16:30:41;;;;;;;9.77;2.80;;;14.50;99.90;;;;;;4979912;28;20027;-72
2023/03/08 16:33:07;;;;;;;9.77;2.53;;;14.40;99.90;;;;;;4979886;28;20050;-72
2023/03/08 16:35:32;;;;;;;11.73;2.63;;;14.40;99.90;;;;;;4962523;28;20550;-72
2023/03/08 16:37:58;;;;;;;13.23;2.88;;;14.40;99.90;;;;;;4979812;28;20027;-72
2023/03/08 16:40:29;;;;;;;8.95;2.38;;;14.40;99.90;;;;;;4979448;28;20027;-72
2023/03/08 16:42:55;;;;;;;11.73;2.85;;;14.30;99.90;;;;;;4979132;28;20027;-70
2023/03/08 16:45:21;;;;;;;12.40;2.70;;;14.30;99.90;;;;;;4979644;28;20518;-70
2023/03/08 16:47:46;;;;;;;10.88;2.63;;;14.30;99.90;;;;;;4976093;28;20019;-71
2023/03/08 16:50:12;;;;;;;8.20;2.30;;;14.30;99.90;;;;;;4979451;28;20047;-73
2023/03/08 16:52:38;;;;;;;7.15;2.17;;;14.30;99.90;;;;;;4979353;28;20027;-71
2023/03/08 16:55:04;;;;;;;10.55;2.67;;;14.20;99.90;;;;;;4994210;28;20546;-72
2023/03/08 16:57:30;;;;;;;8.55;2.38;;;14.20;99.90;;;;;;4979142;28;20026;-76
2023/03/08 16:59:55;;;;;;;8.05;2.28;;;14.20;99.90;;;;;;4960080;28;20030;-72
2023/03/08 17:02:21;;;;;;;9.27;2.65;;;14.10;99.90;;;;;;4978123;28;20077;-72
2023/03/08 17:04:48;;;;;;;11.10;2.78;;;14.10;99.90;;;;;;4978106;28;20088;-71
2023/03/08 17:07:14;;;;;;;16.75;3.13;;;14.00;99.90;;;;;;4978011;28;20031;-74
2023/03/08 17:09:40;;;;;;;12.40;2.85;;;13.90;99.90;;;;;;4978467;28;20026;-71
2023/03/08 17:12:06;;;;;;;9.68;2.28;;;13.90;99.90;;;;;;4978078;28;20029;-70
2023/03/08 17:14:32;;;;;;;9.88;2.53;;;13.70;99.90;;;;;;4978339;28;20031;-75
2023/03/08 17:16:58;;;;;;;10.77;2.40;;;13.70;99.90;;;;;;4976964;28;20509;-73
2023/03/08 17:19:24;;;;;;;11.40;2.75;;;13.60;99.90;;;;;;4977982;28;20110;-73
2023/03/08 17:21:50;;;;;;;10.40;2.65;;;13.50;99.90;;;;;;4978037;28;20064;-73
2023/03/08 17:24:16;;;;;;;11.18;2.78;;;13.40;99.90;;;;;;4978255;28;20027;-74
2023/03/08 17:26:47;;;;;;;9.77;2.72;;;13.30;99.90;;;;;;4976685;28;20815;-73
2023/03/08 17:29:13;;;;;;;7.80;2.47;;;13.30;99.90;;;;;;4960916;28;20027;-73
2023/03/08 17:31:39;;;;;;;12.05;3.03;;;13.30;99.90;;;;;;4960285;28;20573;-73
2023/03/08 17:34:05;;;;;;;9.23;2.53;;;13.30;99.90;;;;;;4961297;28;20026;-73
2023/03/08 17:36:31;;;;;;;12.57;2.85;;;13.20;99.90;;;;;;4969520;28;20039;-73
2023/03/08 17:38:56;;;;;;;10.80;2.95;;;13.20;99.90;;;;;;4976671;28;20085;-78
2023/03/08 17:41:23;;;;;;;13.50;3.30;;;13.20;99.90;;;;;;4976782;28;20027;-72
2023/03/08 17:43:49;;;;;;;12.05;3.50;;;13.20;99.90;;;;;;4960993;28;20055;-73
2023/03/08 17:46:18;;;;;;;13.00;3.15;;;13.10;99.90;;;;;;4978293;28;20027;-72
2023/03/08 17:48:44;;;;;;;8.82;2.05;;;13.00;99.90;;;;;;4958324;28;20027;-74
2023/03/08 17:51:13;;;;;;;5.70;1.92;;;12.90;99.90;;;;;;4978444;28;20051;-73
2023/03/08 17:53:40;;;;;;;7.10;2.22;;;12.80;99.90;;;;;;4966967;28;20456;-72
2023/03/08 17:56:13;;;;;;;8.05;2.40;;;12.70;99.90;;;;;;4971662;28;20106;-73
2023/03/08 17:58:40;;;;;;;5.28;1.77;;;12.70;99.90;;;;;;4956920;28;20031;-73
2023/03/08 18:01:16;;;;;;;5.35;1.65;;;12.60;99.90;;;;;;4961136;28;20031;-77
2023/03/08 18:03:42;;;;;;;6.68;1.75;;;12.50;99.90;;;;;;4960992;28;20479;-78
2023/03/08 18:06:20;;;;;;;5.18;1.25;;;12.50;99.90;;;;;;4978465;28;20113;-77
2023/03/08 18:08:46;;;;;;;5.07;1.20;;;12.20;99.90;;;;;;4977925;28;20027;-79
2023/03/08 18:11:11;;;;;;;4.53;0.95;;;12.00;99.90;;;;;;4959691;28;20106;-79
2023/03/08 18:13:37;;;;;;;3.42;1.10;;;11.80;99.90;;;;;;4978171;28;20038;-79
2023/03/08 18:16:04;;;;;;;2.78;0.88;;;11.70;99.90;;;;;;4980889;28;20061;-78
2023/03/08 18:18:30;;;;;;;2.22;0.73;;;11.60;99.90;;;;;;4982066;28;20560;-78
2023/03/08 18:20:56;;;;;;;2.20;0.80;;;11.60;99.90;;;;;;4980986;28;20027;-78
2023/03/08 18:23:23;;;;;;;2.15;0.68;;;11.50;99.90;;;;;;4979538;28;20046;-79
2023/03/08 18:25:49;;;;;;;1.30;0.60;;;11.50;99.90;;;;;;4964102;28;20030;-79
2023/03/08 18:28:15;;;;;;;2.15;0.68;;;11.50;99.90;;;;;;4960924;28;20029;-79
2023/03/08 18:30:40;;;;;;;2.47;0.73;;;11.40;99.90;;;;;;4982093;28;20066;-79
2023/03/08 18:33:06;;;;;;;3.45;0.90;;;11.40;99.90;;;;;;4981255;28;20023;-80
2023/03/08 18:35:32;;;;;;;1.95;0.70;;;11.30;99.90;;;;;;4981954;28;20026;-80
2023/03/08 18:37:57;;;;;;;2.97;0.73;;;11.30;99.90;;;;;;4981730;28;20055;-80
2023/03/08 18:40:23;;;;;;;2.00;0.75;;;11.30;99.90;;;;;;4981679;28;20023;-79
2023/03/08 18:42:51;;;;;;;3.42;0.70;;;11.20;99.90;;;;;;4981492;28;20030;-83
2023/03/08 18:45:32;;;;;;;;;;;;;;;;;;;;;
2023/03/08 18:47:58;;;;;;;1.65;0.82;;;11.00;99.90;;;;;;4978736;28;20110;-80
2023/03/08 18:50:24;;;;;;;2.25;0.80;;;11.10;99.90;;;;;;4982181;28;20082;-80
2023/03/08 18:52:49;;;;;;;3.65;0.88;;;11.00;99.90;;;;;;4964402;28;20030;-80
2023/03/08 18:55:15;;;;;;;1.75;1.00;;;10.90;99.90;;;;;;4981568;28;20040;-80
2023/03/08 18:57:41;;;;;;;3.28;0.82;;;11.00;99.90;;;;;;4980920;28;20058;-80
2023/03/08 19:00:09;;;;;;;2.53;1.10;;;11.00;99.90;;;;;;4964073;28;20510;-80
2023/03/08 19:02:35;;;;;;;2.90;1.20;;;10.90;99.90;;;;;;4981271;28;20019;-80
2023/03/08 19:05:01;;;;;;;1.25;0.70;;;10.90;99.90;;;;;;4981157;28;20027;-80
2023/03/08 19:07:26;;;;;;;2.97;1.13;;;10.90;99.90;;;;;;4981142;28;20034;-79
2023/03/08 19:09:57;;;;;;;5.20;1.20;;;10.80;99.90;;;;;;4962989;28;20034;-80
2023/03/08 19:12:23;;;;;;;2.38;1.13;;;10.90;99.90;;;;;;4967323;28;20026;-80
2023/03/08 19:14:51;;;;;;;3.03;1.60;;;10.80;99.90;;;;;;4981075;28;20039;-80
2023/03/08 19:17:16;;;;;;;2.33;1.05;;;10.80;99.90;;;;;;4963098;28;20031;-79
2023/03/08 19:19:42;;;;;;;2.55;1.27;;;10.90;99.90;;;;;;4981163;28;20038;-79
2023/03/08 19:22:08;;;;;;;2.30;1.02;;;10.80;99.90;;;;;;4980941;28;20023;-78
2023/03/08 19:24:34;;;;;;;1.25;0.77;;;10.80;99.90;;;;;;4980864;28;20453;-79
2023/03/08 19:27:01;;;;;;;1.50;0.88;;;10.80;99.90;;;;;;4979916;28;20038;-78
2023/03/08 19:29:30;;;;;;;1.02;0.50;;;10.80;99.90;;;;;;4963780;28;20037;-79
2023/03/08 19:31:56;;;;;;;1.27;0.68;;;10.90;99.90;;;;;;4963488;28;20097;-79
2023/03/08 19:34:31;;;;;;;0.90;0.52;;;10.90;99.90;;;;;;4963502;28;20031;-78
2023/03/08 19:36:58;;;;;;;1.73;0.82;;;10.90;99.90;;;;;;4976948;28;20054;-79
2023/03/08 19:39:27;;;;;;;2.47;1.13;;;10.90;99.90;;;;;;4963350;28;20050;-80
2023/03/08 19:41:56;;;;;;;1.67;0.57;;;10.90;99.90;;;;;;4980433;28;20023;-80
2023/03/08 19:44:22;;;;;;;0.93;0.50;;;10.90;99.90;;;;;;4980607;28;20396;-80
2023/03/08 19:46:49;;;;;;;2.22;0.70;;;11.00;99.90;;;;;;4980814;28;20097;-80
2023/03/08 19:49:17;;;;;;;2.47;0.80;;;11.00;99.90;;;;;;4960128;28;20471;-80
2023/03/08 19:51:46;;;;;;;0.93;0.45;;;11.00;99.90;;;;;;4980365;28;20519;-80
2023/03/08 19:54:12;;;;;;;1.98;0.70;;;11.10;99.90;;;;;;4963237;28;20042;-80
2023/03/08 19:56:38;;;;;;;2.33;1.00;;;11.10;99.90;;;;;;4962125;28;20031;-78
2023/03/08 19:59:04;;;;;;;2.05;0.75;;;11.10;99.90;;;;;;4979483;28;20486;-81
2023/03/08 20:01:33;;;;;;;2.53;0.90;;;11.20;99.90;;;;;;4980459;28;20030;-81
2023/03/08 20:03:59;;;;;;;3.15;1.10;;;11.10;99.90;;;;;;4980334;28;20037;-79
2023/03/08 20:06:37;;;;;;;3.83;1.10;;;11.10;99.90;;;;;;4962396;28;20027;-81
2023/03/08 20:09:05;;;;;;;2.40;1.10;;;11.10;99.90;;;;;;4961974;28;20057;-80
2023/03/08 20:11:31;;;;;;;6.28;1.20;;;11.10;99.90;;;;;;4961747;28;20026;-78
2023/03/08 20:13:57;;;;;;;3.80;1.33;;;11.10;99.90;;;;;;4976933;28;20038;-81
2023/03/08 20:16:23;;;;;;;2.13;1.02;;;11.10;99.90;;;;;;4967555;28;20495;-80
2023/03/08 20:18:50;;;;;;;2.25;0.77;;;11.10;99.90;;;;;;4989015;28;20133;-85
2023/03/08 20:21:19;;;;;;;2.00;0.93;;;11.10;99.90;;;;;;4976034;28;20029;-81
2023/03/08 20:23:58;;;;;;;2.63;1.23;;;11.00;99.90;;;;;;4953918;28;20027;-85
2023/03/08 20:26:29;;;;;;;4.10;0.95;;;11.10;99.90;;;;;;4967539;28;20499;-83
2023/03/08 20:28:56;;;;;;;4.50;1.08;;;11.00;99.90;;;;;;4958368;28;20422;-86
2023/03/08 20:31:24;;;;;;;3.17;1.27;;;11.00;99.90;;;;;;4960095;28;20038;-85
2023/03/08 20:34:37;;;;;;;;;;;;;;;;;;;;;
2023/03/08 20:37:06;;;;;;;6.22;1.23;;;11.00;99.90;;;;;;4976451;28;20086;-81
2023/03/08 20:40:19;;;;;;;3.45;1.00;;;11.00;99.90;;;;;;4956369;28;20058;-86
2023/03/08 20:42:45;;;;;;;2.30;1.00;;;10.90;99.90;;;;;;4959126;28;20019;-85
2023/03/08 20:45:15;;;;;;;3.92;1.17;;;10.90;99.90;;;;;;4973397;28;20269;-84
2023/03/08 20:47:41;;;;;;;4.32;1.40;;;10.90;99.90;;;;;;4960905;28;20045;-90
2023/03/08 20:50:07;;;;;;;5.03;1.45;;;10.90;99.90;;;;;;4960233;28;20047;-86
2023/03/08 20:52:33;;;;;;;4.40;1.20;;;10.90;99.90;;;;;;4961700;28;20087;-85
2023/03/08 20:54:58;;;;;;;4.93;1.38;;;10.90;99.90;;;;;;4961864;28;20446;-81
2023/03/08 20:57:24;;;;;;;4.63;1.45;;;10.90;99.90;;;;;;4961588;28;20101;-82
2023/03/08 20:59:50;;;;;;;3.97;1.10;;;10.90;99.90;;;;;;4979210;28;20403;-82
2023/03/08 21:02:16;;;;;;;4.15;1.08;;;10.80;99.90;;;;;;4978763;28;20034;-82
2023/03/08 21:04:41;;;;;;;4.68;1.17;;;10.80;99.90;;;;;;4955818;29;20027;-81
2023/03/08 21:07:07;;;;;;;6.53;1.67;;;10.80;99.90;;;;;;4956830;28;20078;-81
2023/03/08 21:09:33;;;;;;;3.08;1.25;;;10.80;99.90;;;;;;4978882;28;20860;-80
2023/03/08 21:11:59;;;;;;;5.38;1.20;;;10.80;99.90;;;;;;4960856;28;20045;-80
2023/03/08 21:14:26;;;;;;;4.85;1.55;;;10.80;99.90;;;;;;4978823;28;20102;-82
2023/03/08 21:16:51;;;;;;;3.42;0.95;;;10.80;99.90;;;;;;4978596;28;20027;-79
2023/03/08 21:19:17;;;;;;;6.13;1.45;;;10.80;99.90;;;;;;4978826;28;20368;-78
2023/03/08 21:21:47;;;;;;;6.00;1.30;;;10.80;99.90;;;;;;4977852;28;20086;-80
2023/03/08 21:24:15;;;;;;;4.40;1.40;;;10.80;99.90;;;;;;4978875;28;20033;-80
2023/03/08 21:26:42;;;;;;;4.03;1.23;;;10.90;99.90;;;;;;4961213;28;20102;-80
2023/03/08 21:29:11;;;;;;;7.68;1.35;;;10.90;99.90;;;;;;4978779;28;20110;-80
2023/03/08 21:31:41;;;;;;;3.35;1.38;;;10.90;99.90;;;;;;4978473;28;20438;-79
2023/03/08 21:34:08;;;;;;;5.63;1.83;;;10.90;99.90;;;;;;4961484;28;20057;-79
2023/03/08 21:36:36;;;;;;;6.93;1.55;;;10.90;99.90;;;;;;4960880;28;20028;-78
2023/03/08 21:39:02;;;;;;;3.55;1.30;;;10.80;99.90;;;;;;4978627;28;20487;-80
2023/03/08 21:41:34;;;;;;;5.93;1.25;;;10.80;99.90;;;;;;4960812;28;20026;-79
2023/03/08 21:44:02;;;;;;;3.75;1.23;;;10.90;99.90;;;;;;4978612;28;20023;-81
2023/03/08 21:46:28;;;;;;;7.82;1.77;;;10.90;99.90;;;;;;4978366;28;20031;-81
2023/03/08 21:48:54;;;;;;;8.23;1.38;;;10.90;99.90;;;;;;4977698;28;20090;-83
2023/03/08 21:51:20;;;;;;;5.43;1.08;;;10.90;99.90;;;;;;4960662;28;20113;-79
2023/03/08 21:53:46;;;;;;;5.80;1.65;;;10.90;99.90;;;;;;4978308;28;20035;-79
2023/03/08 21:56:15;;;;;;;5.78;1.15;;;10.90;99.90;;;;;;4974838;28;20816;-79
2023/03/08 21:58:41;;;;;;;5.43;1.40;;;10.90;99.90;;;;;;4961114;28;20027;-80
2023/03/08 22:01:17;;;;;;;5.20;1.35;;;11.00;99.90;;;;;;4961011;28;20109;-79
2023/03/08 22:03:43;;;;;;;3.75;0.80;;;10.90;99.90;;;;;;4961050;28;20113;-79
2023/03/08 22:06:08;;;;;;;5.28;1.65;;;10.90;99.90;;;;;;4977839;28;20070;-79
2023/03/08 22:08:34;;;;;;;5.35;1.30;;;10.80;99.90;;;;;;4977817;28;20446;-81
2023/03/08 22:11:00;;;;;;;5.00;1.33;;;10.90;99.90;;;;;;4960744;28;20038;-81
2023/03/08 22:13:25;;;;;;;6.95;1.35;;;10.90;99.90;;;;;;4977908;28;20027;-81
2023/03/08 22:15:51;;;;;;;3.55;0.90;;;10.90;99.90;;;;;;4977933;28;20066;-79
2023/03/08 22:18:16;;;;;;;7.47;1.45;;;10.90;99.90;;;;;;4960927;28;20027;-78
2023/03/08 22:20:42;;;;;;;5.20;1.23;;;10.90;99.90;;;;;;4978128;28;20038;-78
2023/03/08 22:23:08;;;;;;;5.32;1.30;;;11.00;99.90;;;;;;4960573;28;20041;-80